• Join FlightAware (Why Join?)
  • Login
  • US Flag 
10:18PM EDT


 

Airport Tracker/Info


-or-


 

Live Flight TrackerFlight Track Log ✈ UAL5911 ✈ 16-Apr-2013 ✈ KPIA - KORD

Flight Track Log - Related Links

Times and Time Zones

All times are in EDT time to prevent confusion due to time zone crossing. See the UAL5911 flight status page for this flight to view local times or setup timezone preferences in your user account.

Time Position Orientation Groundspeed Altitude Reporting Facility
EDT Latitude Longitude Course Direction KTS MPH feet Rate Location/Type
03:45PM 40.7394 -89.7461 359° North 214 246 5,000  Level Chicago Center
03:46PM 40.8117 -89.7058 23° Northeast 243 280 7,000 1,920 Climbing Chicago Center
03:48PM 40.8686 -89.6256 47° Northeast 290 334 9,000 1,740 Climbing Chicago Center
03:50PM 41.1381 -89.5853 North  Level FlightAware Approximate
03:50PM 40.9831 -89.4281 52° Northeast 345 397 12,500  Level Chicago Center
03:51PM 41.0458 -89.3139 54° Northeast 376 433 13,600 780 Climbing Chicago Center
03:53PM 41.1942 -89.0467 54° Northeast 429 494 15,000 420 Climbing Chicago Center
03:54PM 41.2661 -88.9161 54° Northeast 437 503 15,000 -540 Level Chicago Center
03:55PM 41.3356 -88.7875 54° Northeast 432 497 14,000 -1,560 Descending Chicago Center
03:56PM 41.4050 -88.6608 54° Northeast 425 489 11,800 -1,500 Descending Chicago Center
03:57PM 41.4642 -88.5511 54° Northeast 363 418 10,900 -480 Descending Chicago Center
03:58PM 41.5197 -88.4508 53° Northeast 337 388 10,900 -480 Level Chicago Center
03:59PM 41.5878 -88.3369 51° Northeast 325 374 10,000 -1,080 Descending Chicago Center
04:00PM 41.6475 -88.2500 47° Northeast 318 366 8,800 -1,440 Descending Chicago Center
04:01PM 41.7153 -88.1822 37° Northeast 305 351 7,100 -1,620 Descending Chicago Center
04:02PM 41.7733 -88.1069 44° Northeast 290 334 5,500 -1,320 Descending Chicago Center
04:03PM 41.8294 -88.0467 39° Northeast 274 315 4,400 -1,320 Descending Chicago Center
04:04PM 41.8764 -87.9900 42° Northeast 249 287 2,800 -1,560 Descending Chicago Center
04:04PM 41.9000 -87.9667 36° Northeast 211 243 2,100 -1,140 Descending Chicago TRACON
04:05PM 41.9333 -87.9167 48° Northeast 138 159 1,200 -900 Descending Chicago TRACON
04:08PM 41.9667 -87.9000 44° Northeast  Level FlightAware Approximate